createdAt,value
2024-02-27T00:02:16.803Z,101142.50
2024-02-27T00:06:59.879Z,101139.53
2024-02-27T00:11:37.678Z,101145.66
2024-02-27T00:16:15.697Z,101152.63
2024-02-27T00:20:53.723Z,101150.50
2024-02-27T00:25:34.734Z,101157.31
2024-02-27T00:30:13.806Z,101169.09
2024-02-27T00:34:51.748Z,101165.94
2024-02-27T00:39:30.906Z,101157.84
2024-02-27T00:44:13.679Z,101165.28
2024-02-27T00:48:51.801Z,101188.06
2024-02-27T00:53:29.686Z,101172.25
2024-02-27T00:58:07.797Z,101171.16
2024-02-27T01:02:49.673Z,101166.78
2024-02-27T01:07:27.733Z,101173.84
2024-02-27T01:12:05.788Z,101179.59
2024-02-27T01:16:43.663Z,101176.09
2024-02-27T01:21:24.733Z,101176.91
2024-02-27T01:26:02.689Z,101185.00
2024-02-27T01:30:40.824Z,101186.84
2024-02-27T01:35:13.872Z,101188.50
2024-02-27T01:39:55.674Z,101185.63
2024-02-27T01:44:33.662Z,101194.53
2024-02-27T01:49:13.823Z,101197.03
2024-02-27T01:53:51.666Z,101207.16
2024-02-27T01:58:32.729Z,101195.38
2024-02-27T02:03:11.812Z,101195.94
2024-02-27T02:07:50.657Z,101201.88
2024-02-27T02:12:28.714Z,101206.63
2024-02-27T02:17:09.757Z,101213.19
2024-02-27T02:21:50.701Z,101208.94
2024-02-27T02:26:29.706Z,101210.69
2024-02-27T02:31:07.718Z,101218.28
2024-02-27T02:35:45.683Z,101239.16
2024-02-27T02:40:27.699Z,101246.28
2024-02-27T02:44:59.721Z,101256.72
2024-02-27T02:49:40.895Z,101256.09
2024-02-27T02:54:19.704Z,101260.63
2024-02-27T02:59:00.669Z,101259.13
2024-02-27T03:03:38.737Z,101246.50
2024-02-27T03:08:16.681Z,101255.44
2024-02-27T03:12:55.671Z,101256.44
2024-02-27T03:17:36.714Z,101257.19
2024-02-27T03:22:14.698Z,101258.19
2024-02-27T03:26:52.654Z,101254.66
2024-02-27T03:31:30.672Z,101265.41
2024-02-27T03:36:11.787Z,101258.38
2024-02-27T03:40:49.664Z,101254.53
2024-02-27T03:45:27.720Z,101259.91
2024-02-27T03:50:05.716Z,101266.69
2024-02-27T03:54:46.682Z,101256.28
2024-02-27T03:59:25.640Z,101266.75
2024-02-27T04:04:03.640Z,101265.63
2024-02-27T04:08:41.685Z,101264.28
2024-02-27T04:13:22.656Z,101271.53
2024-02-27T04:18:00.689Z,101282.47
2024-02-27T04:22:38.675Z,101293.38
2024-02-27T04:27:16.681Z,101284.00
2024-02-27T04:32:00.642Z,101284.66
2024-02-27T04:36:38.644Z,101292.91
2024-02-27T04:41:16.665Z,101290.03
2024-02-27T04:45:54.652Z,101284.47
2024-02-27T04:50:35.637Z,101294.88
2024-02-27T04:55:13.646Z,101295.72
2024-02-27T04:59:52.662Z,101310.88
2024-02-27T05:04:30.721Z,101311.06
2024-02-27T05:09:11.701Z,101303.81
2024-02-27T05:13:49.635Z,101312.06
2024-02-27T05:18:27.814Z,101322.31
2024-02-27T05:23:05.644Z,101325.00
2024-02-27T05:27:46.636Z,101331.03
2024-02-27T05:32:24.655Z,101347.66
2024-02-27T05:37:02.647Z,101348.31
2024-02-27T05:41:40.629Z,101360.19
2024-02-27T05:46:21.679Z,101361.91
2024-02-27T05:50:59.683Z,101359.25
2024-02-27T05:55:37.629Z,101367.13
2024-02-27T06:00:15.687Z,101373.88
2024-02-27T06:04:56.737Z,101378.56
2024-02-27T06:09:34.745Z,101383.28
2024-02-27T06:14:12.620Z,101393.88
2024-02-27T06:18:53.709Z,101410.00
2024-02-27T06:23:34.630Z,101418.75
2024-02-27T06:28:12.612Z,101431.16
2024-02-27T06:32:50.740Z,101431.88
2024-02-27T06:37:28.646Z,101434.38
2024-02-27T06:42:09.706Z,101435.38
2024-02-27T06:46:48.604Z,101451.78
2024-02-27T06:51:26.654Z,101460.34
2024-02-27T06:56:04.658Z,101460.00
2024-02-27T07:00:45.854Z,101470.25
2024-02-27T07:05:32.094Z,101459.84
2024-02-27T07:10:13.639Z,101482.19
2024-02-27T07:14:57.678Z,101484.19
2024-02-27T07:19:38.681Z,101475.41
2024-02-27T07:24:16.666Z,101474.22
2024-02-27T07:28:54.646Z,101468.81
2024-02-27T07:33:32.647Z,101465.59
2024-02-27T07:38:13.650Z,101461.59
2024-02-27T07:42:51.624Z,101473.34
2024-02-27T07:47:29.590Z,101475.72
2024-02-27T07:52:07.639Z,101481.28
2024-02-27T07:56:48.609Z,101480.56
2024-02-27T08:01:26.733Z,101484.09
2024-02-27T08:06:04.620Z,101484.94
2024-02-27T08:10:42.627Z,101479.19
2024-02-27T08:15:23.629Z,101474.50
2024-02-27T08:20:01.609Z,101485.22
2024-02-27T08:24:39.737Z,101491.09
2024-02-27T08:29:17.625Z,101493.25
2024-02-27T08:33:58.776Z,101497.16
2024-02-27T08:38:36.593Z,101511.47
2024-02-27T08:43:14.614Z,101511.78
2024-02-27T08:47:52.687Z,101519.16
2024-02-27T08:52:33.600Z,101514.44
2024-02-27T08:57:12.922Z,101511.88
2024-02-27T09:01:51.591Z,101518.22
2024-02-27T09:06:29.684Z,101516.16
2024-02-27T09:11:10.692Z,101528.56
2024-02-27T09:15:48.665Z,101536.94
2024-02-27T09:20:21.595Z,101539.94
2024-02-27T09:24:59.574Z,101538.75
2024-02-27T09:29:41.591Z,101538.75
2024-02-27T09:34:19.692Z,101533.84
2024-02-27T09:38:58.591Z,101538.03
2024-02-27T09:43:40.557Z,101544.81
2024-02-27T09:48:23.682Z,101548.84
2024-02-27T09:53:04.601Z,101545.47
2024-02-27T09:57:45.706Z,101555.34
2024-02-27T10:02:28.810Z,101547.72
2024-02-27T10:07:09.631Z,101541.81
2024-02-27T10:11:47.583Z,101553.34
2024-02-27T10:16:25.583Z,101550.63
2024-02-27T10:21:04.651Z,101554.44
2024-02-27T10:25:46.572Z,101553.06
2024-02-27T10:30:25.591Z,101560.97
2024-02-27T10:35:04.807Z,101564.34
2024-02-27T10:39:43.630Z,101567.50
2024-02-27T10:44:24.594Z,101562.81
2024-02-27T10:49:02.618Z,101571.03
2024-02-27T10:53:41.577Z,101569.47
2024-02-27T10:58:20.578Z,101556.66
2024-02-27T11:03:06.584Z,101547.38
2024-02-27T11:07:46.631Z,101545.16
2024-02-27T11:12:21.508Z,101551.03
2024-02-27T11:16:56.614Z,101552.69
2024-02-27T11:21:38.586Z,101548.78
2024-02-27T11:26:17.642Z,101553.84
2024-02-27T11:30:55.625Z,101542.69
2024-02-27T11:35:35.554Z,101544.53
2024-02-27T11:40:16.645Z,101553.38
2024-02-27T11:45:19.604Z,101547.66
2024-02-27T11:49:57.587Z,101553.06
2024-02-27T11:54:49.619Z,101536.59
2024-02-27T11:59:30.666Z,101539.03
2024-02-27T12:04:08.844Z,101530.22
2024-02-27T12:08:47.606Z,101520.63
2024-02-27T12:13:28.323Z,101521.47
2024-02-27T12:18:09.807Z,101520.41
2024-02-27T12:22:48.599Z,101502.25
2024-02-27T12:27:26.615Z,101497.06
2024-02-27T12:32:04.599Z,101490.72
2024-02-27T12:36:45.652Z,101479.47
2024-02-27T12:41:24.572Z,101476.09
2024-02-27T12:46:06.565Z,101474.41
2024-02-27T12:50:44.581Z,101468.66
2024-02-27T12:55:26.571Z,101460.91
2024-02-27T13:00:04.660Z,101468.00
2024-02-27T13:04:45.034Z,101462.50
2024-02-27T13:09:27.723Z,101446.47
2024-02-27T13:14:02.430Z,101450.69
2024-02-27T13:18:34.969Z,101448.19
2024-02-27T13:23:21.488Z,101450.50
2024-02-27T13:28:03.563Z,101451.63
2024-02-27T13:32:44.606Z,101433.38
2024-02-27T13:37:22.559Z,101449.72
2024-02-27T13:42:02.594Z,101449.66
2024-02-27T13:46:40.564Z,101458.97
2024-02-27T13:51:21.609Z,101462.31
2024-02-27T13:56:08.671Z,101460.00
2024-02-27T14:00:46.638Z,101462.28
2024-02-27T14:05:25.538Z,101455.81
2024-02-27T14:10:06.637Z,101460.06
2024-02-27T14:14:38.379Z,101455.31
2024-02-27T14:19:12.678Z,101452.50
2024-02-27T14:23:50.593Z,101452.34
2024-02-27T14:28:31.557Z,101460.22
2024-02-27T14:33:10.736Z,101451.97
2024-02-27T14:37:48.542Z,101448.34
2024-02-27T14:42:27.621Z,101445.28
2024-02-27T14:47:08.667Z,101457.06
2024-02-27T14:51:47.701Z,101455.75
2024-02-27T14:56:26.528Z,101460.31
2024-02-27T15:01:08.026Z,101455.59
2024-02-27T15:05:49.575Z,101458.75
2024-02-27T15:10:27.534Z,101449.50
2024-02-27T15:15:05.599Z,101453.31
2024-02-27T15:19:45.739Z,101434.25
2024-02-27T15:24:28.596Z,101433.78
2024-02-27T15:29:06.545Z,101444.00
2024-02-27T15:33:44.598Z,101449.47
2024-02-27T15:38:24.549Z,101436.94
2024-02-27T15:43:07.632Z,101454.53
2024-02-27T15:47:45.612Z,101441.25
2024-02-27T15:52:23.653Z,101446.44
2024-02-27T15:57:02.569Z,101440.31
2024-02-27T16:01:43.624Z,101449.66
2024-02-27T16:06:23.650Z,101459.44
2024-02-27T16:11:01.554Z,101460.03
2024-02-27T16:15:39.580Z,101453.53
2024-02-27T16:20:21.517Z,101466.50
2024-02-27T16:24:59.592Z,101464.75
2024-02-27T16:29:37.545Z,101472.63
2024-02-27T16:34:15.611Z,101479.28
2024-02-27T16:38:56.520Z,101477.25
2024-02-27T16:43:34.518Z,101494.69
2024-02-27T16:48:13.646Z,101493.97
2024-02-27T16:52:51.516Z,101487.56
2024-02-27T16:57:32.553Z,101499.66
2024-02-27T17:02:10.536Z,101495.75
2024-02-27T17:06:51.581Z,101483.69
2024-02-27T17:11:29.627Z,101501.03
2024-02-27T17:16:10.557Z,101501.88
2024-02-27T17:20:48.480Z,101499.94
2024-02-27T17:25:26.523Z,101504.72
2024-02-27T17:30:05.595Z,101504.16
2024-02-27T17:34:46.648Z,101505.69
2024-02-27T17:39:25.538Z,101513.06
2024-02-27T17:44:03.515Z,101518.59
2024-02-27T17:48:41.603Z,101516.50
2024-02-27T17:53:22.549Z,101518.25
2024-02-27T17:58:00.499Z,101517.97
2024-02-27T18:02:38.556Z,101525.72
2024-02-27T18:07:16.586Z,101530.75
2024-02-27T18:11:58.482Z,101536.13
2024-02-27T18:16:36.520Z,101530.59
2024-02-27T18:21:16.695Z,101534.00
2024-02-27T18:25:54.471Z,101536.19
2024-02-27T18:30:35.968Z,101540.72
2024-02-27T18:35:16.616Z,101550.53
2024-02-27T18:39:54.678Z,101548.53
2024-02-27T18:44:34.487Z,101550.75
2024-02-27T18:49:15.568Z,101539.03
2024-02-27T18:53:57.568Z,101540.09
2024-02-27T18:58:35.477Z,101537.91
2024-02-27T19:03:13.495Z,101551.66
2024-02-27T19:07:54.498Z,101556.75
2024-02-27T19:12:32.826Z,101553.41
2024-02-27T19:17:12.495Z,101560.28
2024-02-27T19:21:51.527Z,101556.47
2024-02-27T19:26:32.492Z,101563.88
2024-02-27T19:31:10.456Z,101556.66
2024-02-27T19:35:43.488Z,101550.56
2024-02-27T19:40:22.483Z,101561.13
2024-02-27T19:45:04.475Z,101578.13
2024-02-27T19:49:42.554Z,101584.31
2024-02-27T19:54:20.523Z,101598.97
2024-02-27T19:58:58.454Z,101596.44
2024-02-27T20:03:39.517Z,101605.16
2024-02-27T20:08:17.470Z,101607.66
2024-02-27T20:12:55.593Z,101614.53
2024-02-27T20:17:33.580Z,101619.09
2024-02-27T20:22:15.430Z,101622.66
2024-02-27T20:26:57.469Z,101633.25
2024-02-27T20:31:36.380Z,101608.56
2024-02-27T20:36:14.456Z,101594.94
2024-02-27T20:40:56.460Z,101602.34
2024-02-27T20:45:34.511Z,101602.84
2024-02-27T20:50:16.476Z,101603.88
2024-02-27T20:54:54.524Z,101611.78
2024-02-27T20:59:36.485Z,101611.47
2024-02-27T21:04:14.556Z,101612.78
2024-02-27T21:08:52.471Z,101607.09
2024-02-27T21:13:30.470Z,101595.81
2024-02-27T21:18:12.885Z,101605.25
2024-02-27T21:22:50.475Z,101617.50
2024-02-27T21:27:28.554Z,101609.44
2024-02-27T21:32:06.487Z,101612.66
2024-02-27T21:36:47.587Z,101605.94
2024-02-27T21:41:26.468Z,101611.31
2024-02-27T21:46:06.490Z,101626.94
2024-02-27T21:50:44.471Z,101613.16
2024-02-27T21:55:26.503Z,101620.88
2024-02-27T22:00:04.623Z,101613.16
2024-02-27T22:04:42.459Z,101606.25
2024-02-27T22:09:20.535Z,101614.69
2024-02-27T22:14:01.470Z,101626.78
2024-02-27T22:18:39.536Z,101629.13
2024-02-27T22:23:17.459Z,101620.22
2024-02-27T22:27:55.501Z,101619.88
2024-02-27T22:32:36.533Z,101632.81
2024-02-27T22:37:14.440Z,101631.66
2024-02-27T22:41:52.473Z,101631.81
2024-02-27T22:46:32.451Z,101644.06
2024-02-27T22:51:13.458Z,101637.84
2024-02-27T22:55:52.454Z,101645.38
2024-02-27T23:00:32.743Z,101641.53
2024-02-27T23:05:10.437Z,101647.94
2024-02-27T23:09:51.547Z,101638.16
2024-02-27T23:14:29.460Z,101639.69
2024-02-27T23:19:07.471Z,101633.31
2024-02-27T23:23:45.454Z,101616.72
2024-02-27T23:28:27.429Z,101626.09
2024-02-27T23:33:05.526Z,101632.97
2024-02-27T23:37:37.436Z,101625.75
2024-02-27T23:42:15.447Z,101618.53
2024-02-27T23:46:56.440Z,101608.63
2024-02-27T23:51:36.439Z,101623.25
2024-02-27T23:56:14.409Z,101623.06
